createdAt,value
2019-05-23T00:00:25.135Z,0.00
2019-05-23T00:01:25.145Z,0.00
2019-05-23T00:02:25.171Z,0.00
2019-05-23T00:03:25.129Z,0.00
2019-05-23T00:04:25.127Z,0.00
2019-05-23T00:05:25.083Z,0.00
2019-05-23T00:06:25.079Z,0.00
2019-05-23T00:07:25.054Z,0.00
2019-05-23T00:08:25.044Z,0.00
2019-05-23T00:09:25.073Z,0.00
2019-05-23T00:10:25.041Z,0.00
2019-05-23T00:11:25.008Z,0.00
2019-05-23T00:12:25.003Z,0.00
2019-05-23T00:13:24.988Z,0.00
2019-05-23T00:14:24.978Z,0.00
2019-05-23T00:15:25.034Z,0.00
2019-05-23T00:16:24.949Z,0.00
2019-05-23T00:17:24.939Z,0.00
2019-05-23T00:18:24.929Z,0.00
2019-05-23T00:19:24.931Z,0.00
2019-05-23T00:20:24.917Z,0.00
2019-05-23T00:21:24.937Z,0.00
2019-05-23T00:22:24.928Z,0.00
2019-05-23T00:23:24.870Z,0.00
2019-05-23T00:24:24.861Z,0.00
2019-05-23T00:25:24.871Z,0.00
2019-05-23T00:26:24.885Z,0.00
2019-05-23T00:27:24.864Z,0.00
2019-05-23T00:28:24.820Z,0.00
2019-05-23T00:29:24.809Z,0.00
2019-05-23T00:30:24.823Z,0.00
2019-05-23T00:31:24.795Z,0.00
2019-05-23T00:32:24.815Z,0.00
2019-05-23T00:33:24.758Z,0.00
2019-05-23T00:34:24.748Z,0.00
2019-05-23T00:35:24.734Z,0.00
2019-05-23T00:36:24.826Z,0.00
2019-05-23T00:37:24.789Z,0.00
2019-05-23T00:38:24.713Z,0.00
2019-05-23T00:39:24.707Z,0.00
2019-05-23T00:40:24.684Z,0.00
2019-05-23T00:41:24.668Z,0.00
2019-05-23T00:42:24.661Z,0.00
2019-05-23T00:43:24.722Z,0.00
2019-05-23T00:44:24.662Z,0.00
2019-05-23T00:45:24.626Z,0.00
2019-05-23T00:46:24.625Z,0.00
2019-05-23T00:47:24.688Z,0.00
2019-05-23T00:48:24.600Z,0.00
2019-05-23T00:49:24.607Z,0.00
2019-05-23T00:50:24.566Z,0.00
2019-05-23T00:51:24.573Z,0.00
2019-05-23T00:52:24.602Z,0.00
2019-05-23T00:53:24.537Z,0.00
2019-05-23T00:54:24.561Z,0.00
2019-05-23T00:55:24.537Z,0.00
2019-05-23T00:56:24.544Z,0.00
2019-05-23T00:57:24.495Z,0.00
2019-05-23T00:58:24.494Z,0.00
2019-05-23T00:59:27.502Z,0.00
2019-05-23T01:00:24.494Z,0.00
2019-05-23T01:01:24.461Z,0.00
2019-05-23T01:02:24.432Z,0.00
2019-05-23T01:03:24.469Z,0.00
2019-05-23T01:04:24.425Z,0.00
2019-05-23T01:05:24.450Z,0.00
2019-05-23T01:06:24.421Z,0.00
2019-05-23T01:07:24.372Z,0.00
2019-05-23T01:08:24.366Z,0.00
2019-05-23T01:09:24.350Z,0.00
2019-05-23T01:10:24.338Z,0.00
2019-05-23T01:11:24.378Z,0.00
2019-05-23T01:12:24.366Z,0.00
2019-05-23T01:13:24.333Z,0.00
2019-05-23T01:14:24.291Z,0.00
2019-05-23T01:15:24.281Z,0.00
2019-05-23T01:16:24.278Z,0.00
2019-05-23T01:17:24.300Z,0.00
2019-05-23T01:18:24.259Z,0.00
2019-05-23T01:19:24.234Z,0.00
2019-05-23T01:20:24.247Z,0.00
2019-05-23T01:21:24.222Z,0.00
2019-05-23T01:22:24.219Z,0.00
2019-05-23T01:23:24.237Z,0.00
2019-05-23T01:24:24.204Z,0.00
2019-05-23T01:25:24.169Z,0.00
2019-05-23T01:26:24.245Z,0.00
2019-05-23T01:27:24.148Z,0.00
2019-05-23T01:28:24.140Z,0.00
2019-05-23T01:29:24.163Z,0.00
2019-05-23T01:30:24.131Z,0.00
2019-05-23T01:31:24.101Z,0.00
2019-05-23T01:32:24.133Z,0.00
2019-05-23T01:33:24.164Z,0.00
2019-05-23T01:34:24.066Z,0.00
2019-05-23T01:35:24.097Z,0.00
2019-05-23T01:36:24.040Z,0.00
2019-05-23T01:37:24.077Z,0.00
2019-05-23T01:38:24.020Z,0.00
2019-05-23T01:39:24.011Z,0.00
2019-05-23T01:40:24.004Z,0.00
2019-05-23T01:41:24.042Z,0.00
2019-05-23T01:42:23.984Z,0.00
2019-05-23T01:43:24.015Z,0.00
2019-05-23T01:44:23.954Z,0.00
2019-05-23T01:45:23.943Z,0.00
2019-05-23T01:46:23.932Z,0.00
2019-05-23T01:47:23.967Z,0.00
2019-05-23T01:48:23.929Z,0.00
2019-05-23T01:49:23.951Z,0.00
2019-05-23T01:50:23.889Z,0.00
2019-05-23T01:51:23.874Z,0.00
2019-05-23T01:52:23.861Z,0.00
2019-05-23T01:53:23.848Z,0.00
2019-05-23T01:54:23.835Z,0.00
2019-05-23T01:55:23.898Z,0.00
2019-05-23T01:56:23.816Z,0.00
2019-05-23T01:57:23.806Z,0.00
2019-05-23T01:58:23.790Z,0.00
2019-05-23T01:59:23.782Z,0.00
2019-05-23T02:00:23.777Z,0.00
2019-05-23T02:01:23.803Z,0.00
2019-05-23T02:02:23.842Z,0.00
2019-05-23T02:03:23.740Z,0.00
2019-05-23T02:04:23.738Z,0.00
2019-05-23T02:05:23.721Z,0.00
2019-05-23T02:06:23.705Z,0.00
2019-05-23T02:07:23.683Z,0.00
2019-05-23T02:08:23.721Z,0.00
2019-05-23T02:09:23.712Z,0.00
2019-05-23T02:10:23.675Z,0.00
2019-05-23T02:11:23.638Z,0.00
2019-05-23T02:12:23.665Z,0.00
2019-05-23T02:13:23.691Z,0.00
2019-05-23T02:14:23.612Z,0.00
2019-05-23T02:15:23.597Z,0.00
2019-05-23T02:16:23.581Z,0.00
2019-05-23T02:17:23.576Z,0.00
2019-05-23T02:18:23.558Z,0.00
2019-05-23T02:19:23.657Z,0.00
2019-05-23T02:20:23.536Z,0.00
2019-05-23T02:21:23.535Z,0.00
2019-05-23T02:22:23.574Z,0.00
2019-05-23T02:23:23.502Z,0.00
2019-05-23T02:24:23.528Z,0.00
2019-05-23T02:25:23.481Z,0.00
2019-05-23T02:26:23.522Z,0.00
2019-05-23T02:27:23.494Z,0.00
2019-05-23T02:28:23.446Z,0.00
2019-05-23T02:29:23.444Z,0.00
2019-05-23T02:30:34.100Z,0.00
2019-05-23T02:31:24.420Z,0.00
2019-05-23T02:32:23.417Z,0.00
2019-05-23T02:33:23.448Z,0.00
2019-05-23T02:34:23.382Z,0.00
2019-05-23T02:35:23.428Z,0.00
2019-05-23T02:36:23.408Z,0.00
2019-05-23T02:37:23.401Z,0.00
2019-05-23T02:38:23.336Z,0.00
2019-05-23T02:39:23.329Z,0.00
2019-05-23T02:40:23.311Z,0.00
2019-05-23T02:41:23.303Z,0.00
2019-05-23T02:42:23.307Z,0.00
2019-05-23T02:43:23.363Z,0.00
2019-05-23T02:44:23.275Z,0.00
2019-05-23T02:45:23.258Z,0.00
2019-05-23T02:46:23.241Z,0.00
2019-05-23T02:47:23.232Z,0.00
2019-05-23T02:48:23.266Z,0.00
2019-05-23T02:49:23.231Z,0.00
2019-05-23T02:50:23.209Z,0.00
2019-05-23T02:51:23.185Z,0.00
2019-05-23T02:52:23.195Z,0.00
2019-05-23T02:53:23.218Z,0.00
2019-05-23T02:54:23.149Z,0.00
2019-05-23T02:55:23.155Z,4.00
2019-05-23T02:56:23.155Z,4.00
2019-05-23T02:57:23.120Z,4.00
2019-05-23T02:58:23.108Z,0.00
2019-05-23T02:59:23.170Z,4.00
2019-05-23T03:00:23.093Z,4.00
2019-05-23T03:01:23.079Z,4.00
2019-05-23T03:02:23.076Z,4.00
2019-05-23T03:03:23.051Z,8.00
2019-05-23T03:04:23.115Z,4.00
2019-05-23T03:05:23.080Z,8.00
2019-05-23T03:06:23.016Z,8.00
2019-05-23T03:07:23.017Z,8.00
2019-05-23T03:08:22.993Z,12.00
2019-05-23T03:09:23.031Z,12.00
2019-05-23T03:10:22.971Z,12.00
2019-05-23T03:11:22.990Z,16.00
2019-05-23T03:12:25.226Z,20.00
2019-05-23T03:13:22.938Z,20.00
2019-05-23T03:14:22.929Z,24.00
2019-05-23T03:15:22.968Z,24.00
2019-05-23T03:16:22.905Z,32.00
2019-05-23T03:17:23.008Z,36.00
2019-05-23T03:18:22.908Z,40.00
2019-05-23T03:19:22.959Z,44.00
2019-05-23T03:20:22.861Z,48.00
2019-05-23T03:21:22.885Z,56.00
2019-05-23T03:22:22.839Z,60.00
2019-05-23T03:23:22.863Z,64.00
2019-05-23T03:24:22.808Z,72.00
2019-05-23T03:25:22.861Z,80.00
2019-05-23T03:26:22.787Z,88.00
2019-05-23T03:27:22.799Z,100.00
2019-05-23T03:28:22.810Z,108.00
2019-05-23T03:29:22.781Z,116.00
2019-05-23T03:30:22.746Z,128.00
2019-05-23T03:31:29.726Z,136.00
2019-05-23T03:32:23.788Z,152.00
2019-05-23T03:33:22.778Z,164.00
2019-05-23T03:34:22.862Z,176.00
2019-05-23T03:35:22.713Z,188.00
2019-05-23T03:36:22.692Z,204.00
2019-05-23T03:37:22.673Z,220.00
2019-05-23T03:38:22.670Z,240.00
2019-05-23T03:39:22.689Z,260.00
2019-05-23T03:40:22.633Z,276.00
2019-05-23T03:41:22.644Z,296.00
2019-05-23T03:42:22.613Z,320.00
2019-05-23T03:43:22.601Z,336.00
2019-05-23T03:44:22.601Z,360.00
2019-05-23T03:45:22.629Z,380.00
2019-05-23T03:46:22.611Z,400.00
2019-05-23T03:47:22.567Z,420.00
2019-05-23T03:48:22.545Z,448.00
2019-05-23T03:49:22.540Z,468.00
2019-05-23T03:50:22.592Z,492.00
2019-05-23T03:51:22.524Z,516.00
2019-05-23T03:52:22.580Z,544.00
2019-05-23T03:53:22.529Z,572.00
2019-05-23T03:54:22.481Z,596.00
2019-05-23T03:55:22.505Z,628.00
2019-05-23T03:56:22.492Z,656.00
2019-05-23T03:57:25.615Z,688.00
2019-05-23T03:58:22.489Z,720.00
2019-05-23T03:59:22.442Z,752.00
2019-05-23T04:00:22.415Z,788.00
2019-05-23T04:01:22.417Z,824.00
2019-05-23T04:02:22.395Z,864.00
2019-05-23T04:03:22.380Z,912.00
2019-05-23T04:04:22.422Z,956.00
2019-05-23T04:05:22.381Z,1004.00
2019-05-23T04:06:22.341Z,1052.00
2019-05-23T04:07:22.341Z,1104.00
2019-05-23T04:08:22.316Z,1148.00
2019-05-23T04:09:22.354Z,1188.00
2019-05-23T04:10:22.343Z,1216.00
2019-05-23T04:11:22.299Z,1252.00
2019-05-23T04:12:22.312Z,1292.00
2019-05-23T04:13:22.264Z,1352.00
2019-05-23T04:14:22.245Z,1416.00
2019-05-23T04:15:22.234Z,1476.00
2019-05-23T04:16:22.266Z,1528.00
2019-05-23T04:17:22.265Z,1580.00
2019-05-23T04:18:22.252Z,1632.00
2019-05-23T04:19:22.191Z,1692.00
2019-05-23T04:20:22.234Z,1752.00
2019-05-23T04:21:22.185Z,1808.00
2019-05-23T04:22:22.157Z,1856.00
2019-05-23T04:23:22.157Z,1896.00
2019-05-23T04:24:22.193Z,1940.00
2019-05-23T04:25:22.163Z,1964.00
2019-05-23T04:26:22.135Z,1996.00
2019-05-23T04:27:22.098Z,2024.00
2019-05-23T04:28:22.086Z,2048.00
2019-05-23T04:29:22.076Z,2084.00
2019-05-23T04:30:22.075Z,2116.00
2019-05-23T04:31:22.100Z,2152.00
2019-05-23T04:32:22.039Z,2192.00
2019-05-23T04:33:22.072Z,2224.00
2019-05-23T04:34:22.017Z,2256.00
2019-05-23T04:35:22.024Z,2288.00
2019-05-23T04:36:22.019Z,2320.00
2019-05-23T04:37:21.994Z,2356.00
2019-05-23T04:38:21.980Z,2392.00
2019-05-23T04:39:22.017Z,2428.00
2019-05-23T04:40:21.961Z,2460.00
2019-05-23T04:41:21.958Z,2488.00
2019-05-23T04:42:21.980Z,2520.00
2019-05-23T04:43:21.923Z,2548.00
2019-05-23T04:44:21.909Z,2580.00
2019-05-23T04:45:21.896Z,2608.00
2019-05-23T04:46:21.936Z,2636.00
2019-05-23T04:47:21.893Z,2664.00
2019-05-23T04:48:21.875Z,2692.00
2019-05-23T04:49:21.859Z,2724.00
2019-05-23T04:50:21.866Z,2756.00
2019-05-23T04:51:21.835Z,2796.00
2019-05-23T04:52:21.870Z,2844.00
2019-05-23T04:53:21.856Z,2896.00
2019-05-23T04:54:21.800Z,2944.00
2019-05-23T04:55:21.789Z,2988.00
2019-05-23T04:56:21.894Z,3032.00
2019-05-23T04:57:21.809Z,3080.00
2019-05-23T04:58:21.748Z,3140.00
2019-05-23T04:59:21.823Z,3196.00
2019-05-23T05:00:21.742Z,3236.00
2019-05-23T05:01:21.766Z,3280.00
2019-05-23T05:02:26.138Z,3332.00
2019-05-23T05:03:21.748Z,3380.00
2019-05-23T05:04:21.687Z,3428.00
2019-05-23T05:05:21.669Z,3468.00
2019-05-23T05:06:21.675Z,3512.00
2019-05-23T05:07:21.660Z,3544.00
2019-05-23T05:08:21.649Z,3572.00
2019-05-23T05:09:21.678Z,3600.00
2019-05-23T05:10:21.814Z,3628.00
2019-05-23T05:11:21.619Z,3664.00
2019-05-23T05:12:21.629Z,3700.00
2019-05-23T05:13:21.582Z,3728.00
2019-05-23T05:14:21.575Z,3748.00
2019-05-23T05:15:21.588Z,3772.00
2019-05-23T05:16:21.632Z,3792.00
2019-05-23T05:17:21.563Z,3816.00
2019-05-23T05:18:21.584Z,3836.00
2019-05-23T05:19:21.625Z,3864.00
2019-05-23T05:20:21.499Z,3888.00
2019-05-23T05:21:21.501Z,3908.00
2019-05-23T05:22:21.495Z,3928.00
2019-05-23T05:23:21.473Z,3948.00
2019-05-23T05:24:21.514Z,3960.00
2019-05-23T05:25:21.490Z,3976.00
2019-05-23T05:26:21.456Z,3992.00
2019-05-23T05:27:21.453Z,4008.00
2019-05-23T05:28:21.445Z,4028.00
2019-05-23T05:29:21.404Z,4048.00
2019-05-23T05:30:21.402Z,4068.00
2019-05-23T05:31:21.485Z,4088.00
2019-05-23T05:32:22.285Z,4108.00
2019-05-23T05:33:21.408Z,4128.00
2019-05-23T05:34:21.350Z,4144.00
2019-05-23T05:35:21.335Z,4156.00
2019-05-23T05:36:21.318Z,4172.00
2019-05-23T05:37:21.305Z,4184.00
2019-05-23T05:38:21.360Z,4196.00
2019-05-23T05:39:21.309Z,4208.00
2019-05-23T05:40:21.320Z,4220.00
2019-05-23T05:41:21.261Z,4228.00
2019-05-23T05:42:21.365Z,4248.00
2019-05-23T05:43:21.241Z,4256.00
2019-05-23T05:44:21.450Z,4264.00
2019-05-23T05:45:21.480Z,4284.00
2019-05-23T05:46:21.205Z,4316.00
2019-05-23T05:47:21.214Z,4340.00
2019-05-23T05:48:21.177Z,4372.00
2019-05-23T05:49:21.202Z,4400.00
2019-05-23T05:50:21.204Z,4416.00
2019-05-23T05:51:21.383Z,4444.00
2019-05-23T05:52:21.143Z,4456.00
2019-05-23T05:53:21.212Z,4496.00
2019-05-23T05:54:21.129Z,4584.00
2019-05-23T05:55:21.118Z,4700.00
2019-05-23T05:56:21.179Z,4780.00
2019-05-23T05:57:21.151Z,4828.00
2019-05-23T05:58:21.212Z,4872.00
2019-05-23T05:59:21.082Z,4884.00
2019-05-23T06:00:21.082Z,4904.00
2019-05-23T06:01:33.497Z,4920.00
2019-05-23T06:02:22.085Z,4932.00
2019-05-23T06:03:21.367Z,4944.00
2019-05-23T06:04:21.061Z,4960.00
2019-05-23T06:05:21.050Z,4972.00
2019-05-23T06:06:21.072Z,4984.00
2019-05-23T06:07:20.963Z,5000.00
2019-05-23T06:08:20.949Z,5016.00
2019-05-23T06:09:21.010Z,5024.00
2019-05-23T06:10:21.028Z,5036.00
2019-05-23T06:11:20.945Z,5048.00
2019-05-23T06:12:20.909Z,5060.00
2019-05-23T06:13:20.906Z,5080.00
2019-05-23T06:14:20.901Z,5092.00
2019-05-23T06:15:20.916Z,5100.00
2019-05-23T06:16:20.918Z,5100.00
2019-05-23T06:17:20.860Z,5108.00
2019-05-23T06:18:20.849Z,5124.00
2019-05-23T06:19:20.830Z,5156.00
2019-05-23T06:20:20.844Z,5168.00
2019-05-23T06:21:20.814Z,5164.00
2019-05-23T06:22:20.908Z,5120.00
2019-05-23T06:23:20.810Z,5172.00
2019-05-23T06:24:39.350Z,5228.00
2019-05-23T06:25:21.837Z,5296.00
2019-05-23T06:26:20.750Z,5312.00
2019-05-23T06:27:20.750Z,5316.00
2019-05-23T06:28:20.745Z,5308.00
2019-05-23T06:29:20.770Z,5324.00
2019-05-23T06:30:20.715Z,5344.00
2019-05-23T06:31:20.951Z,5352.00
2019-05-23T06:32:20.774Z,5360.00
2019-05-23T06:33:23.856Z,5372.00
2019-05-23T06:34:20.660Z,5388.00
2019-05-23T06:35:20.706Z,5412.00
2019-05-23T06:36:20.640Z,5440.00
2019-05-23T06:37:20.636Z,5456.00
2019-05-23T06:38:20.624Z,5468.00
2019-05-23T06:39:20.708Z,5472.00
2019-05-23T06:40:20.670Z,5480.00
2019-05-23T06:41:20.576Z,5488.00
2019-05-23T06:42:20.602Z,5500.00
2019-05-23T06:43:20.737Z,5520.00
2019-05-23T06:44:20.540Z,5528.00
2019-05-23T06:45:20.587Z,5540.00
2019-05-23T06:46:20.542Z,5540.00
2019-05-23T06:47:20.639Z,5524.00
2019-05-23T06:48:20.548Z,5560.00
2019-05-23T06:49:20.489Z,5608.00
2019-05-23T06:50:20.504Z,5648.00
2019-05-23T06:51:20.481Z,5680.00
2019-05-23T06:52:20.677Z,5708.00
2019-05-23T06:53:20.557Z,5716.00
2019-05-23T06:54:20.559Z,5732.00
2019-05-23T06:55:20.421Z,5740.00
2019-05-23T06:56:20.401Z,5752.00
2019-05-23T06:57:20.410Z,5764.00
2019-05-23T06:58:20.832Z,5772.00
2019-05-23T06:59:20.450Z,5784.00
2019-05-23T07:00:20.393Z,5776.00
2019-05-23T07:01:20.374Z,5780.00
2019-05-23T07:02:20.405Z,5844.00
2019-05-23T07:03:20.410Z,5872.00
2019-05-23T07:04:20.755Z,5888.00
2019-05-23T07:05:20.391Z,5896.00
2019-05-23T07:06:20.336Z,5908.00
2019-05-23T07:07:20.287Z,5916.00
2019-05-23T07:08:20.750Z,5924.00
2019-05-23T07:09:20.321Z,5948.00
2019-05-23T07:10:20.252Z,5988.00
2019-05-23T07:11:20.237Z,6008.00
2019-05-23T07:12:20.278Z,6028.00
2019-05-23T07:13:20.231Z,6044.00
2019-05-23T07:14:20.256Z,6076.00
2019-05-23T07:15:20.275Z,6132.00
2019-05-23T07:16:20.231Z,6160.00
2019-05-23T07:17:20.207Z,6176.00
2019-05-23T07:18:20.204Z,6192.00
2019-05-23T07:19:20.149Z,6208.00
2019-05-23T07:20:20.340Z,6224.00
2019-05-23T07:21:20.193Z,6240.00
2019-05-23T07:22:20.167Z,6252.00
2019-05-23T07:23:20.211Z,6268.00
2019-05-23T07:24:20.095Z,6304.00
2019-05-23T07:25:20.092Z,6308.00
2019-05-23T07:26:20.076Z,6316.00
2019-05-23T07:27:20.375Z,6320.00
2019-05-23T07:28:20.119Z,6324.00
2019-05-23T07:29:20.087Z,6332.00
2019-05-23T07:30:20.062Z,6344.00
2019-05-23T07:31:20.018Z,6348.00
2019-05-23T07:32:20.014Z,6372.00
2019-05-23T07:33:20.004Z,6400.00
2019-05-23T07:34:20.281Z,6408.00
2019-05-23T07:35:20.018Z,6424.00
2019-05-23T07:36:20.002Z,6432.00
2019-05-23T07:37:20.032Z,6456.00
2019-05-23T07:38:19.942Z,6468.00
2019-05-23T07:39:20.665Z,6472.00
2019-05-23T07:40:19.930Z,6492.00
2019-05-23T07:41:19.952Z,6496.00
2019-05-23T07:42:19.909Z,6504.00
2019-05-23T07:43:19.940Z,6508.00
2019-05-23T07:44:19.929Z,6516.00
2019-05-23T07:45:19.857Z,6524.00
2019-05-23T07:46:19.944Z,6528.00
2019-05-23T07:47:19.837Z,6528.00
2019-05-23T07:48:19.884Z,6528.00
2019-05-23T07:49:19.935Z,6528.00
2019-05-23T07:50:19.943Z,6536.00
2019-05-23T07:51:19.792Z,6528.00
2019-05-23T07:52:20.392Z,6524.00
2019-05-23T07:53:20.151Z,6520.00
2019-05-23T07:54:20.078Z,6512.00
2019-05-23T07:55:19.883Z,6500.00
2019-05-23T07:56:19.871Z,6500.00
2019-05-23T07:57:19.742Z,6500.00
2019-05-23T07:58:19.738Z,6508.00
2019-05-23T07:59:19.721Z,6508.00
2019-05-23T08:00:19.752Z,6500.00
2019-05-23T08:01:19.960Z,6492.00
2019-05-23T08:02:19.730Z,6504.00
2019-05-23T08:03:19.685Z,6512.00
2019-05-23T08:04:22.216Z,6508.00
2019-05-23T08:05:19.669Z,6484.00
2019-05-23T08:06:19.635Z,6484.00
2019-05-23T08:07:19.618Z,6492.00
2019-05-23T08:08:19.730Z,6500.00
2019-05-23T08:09:21.740Z,6520.00
2019-05-23T08:10:33.094Z,6528.00
2019-05-23T08:11:20.602Z,6532.00
2019-05-23T08:12:21.054Z,6536.00
2019-05-23T08:13:21.011Z,6536.00
2019-05-23T08:14:20.336Z,6532.00
2019-05-23T08:15:21.888Z,6552.00
2019-05-23T08:16:21.362Z,6572.00
2019-05-23T08:17:19.690Z,6588.00
2019-05-23T08:18:19.507Z,6608.00
2019-05-23T08:19:19.953Z,6628.00
2019-05-23T08:20:19.676Z,6648.00
2019-05-23T08:21:19.684Z,6660.00
2019-05-23T08:22:19.486Z,6672.00
2019-05-23T08:23:20.547Z,6684.00
2019-05-23T08:24:19.540Z,6692.00
2019-05-23T08:25:19.529Z,6700.00
2019-05-23T08:26:19.490Z,6720.00
2019-05-23T08:27:19.384Z,6736.00
2019-05-23T08:28:19.408Z,6744.00
2019-05-23T08:29:26.052Z,6756.00
2019-05-23T08:30:20.426Z,6772.00
2019-05-23T08:31:19.408Z,6812.00
2019-05-23T08:32:19.347Z,6876.00
2019-05-23T08:33:19.589Z,6908.00
2019-05-23T08:34:19.363Z,6964.00
2019-05-23T08:35:19.299Z,7016.00
2019-05-23T08:36:19.308Z,7072.00
2019-05-23T08:37:19.375Z,7140.00
2019-05-23T08:38:19.423Z,7220.00
2019-05-23T08:39:19.256Z,7316.00
2019-05-23T08:40:19.241Z,7400.00
2019-05-23T08:41:19.292Z,7472.00
2019-05-23T08:42:19.332Z,7560.00
2019-05-23T08:43:19.334Z,7648.00
2019-05-23T08:44:19.263Z,7756.00
2019-05-23T08:45:19.198Z,7824.00
2019-05-23T08:46:20.257Z,7868.00
2019-05-23T08:47:19.186Z,7940.00
2019-05-23T08:51:02.803Z,8500.00
2019-05-23T08:52:02.855Z,8580.00
2019-05-23T08:53:02.629Z,8620.00
2019-05-23T08:54:02.618Z,8672.00
2019-05-23T08:55:02.556Z,8792.00
2019-05-23T08:56:02.588Z,8932.00
2019-05-23T08:57:02.587Z,9120.00
2019-05-23T08:58:02.573Z,9400.00
2019-05-23T08:59:02.555Z,9708.00
2019-05-23T09:00:02.506Z,10036.00
2019-05-23T09:01:02.519Z,10264.00
2019-05-23T09:02:02.486Z,10408.00
2019-05-23T09:03:02.471Z,10516.00
2019-05-23T09:04:02.504Z,10540.00
2019-05-23T09:05:05.974Z,10592.00
2019-05-23T09:06:02.440Z,10684.00
2019-05-23T09:07:02.595Z,10776.00
2019-05-23T09:08:02.417Z,10968.00
2019-05-23T09:09:02.417Z,11112.00
2019-05-23T09:10:02.393Z,11100.00
2019-05-23T09:11:02.459Z,11160.00
2019-05-23T09:12:02.390Z,11296.00
2019-05-23T09:13:02.537Z,11460.00
2019-05-23T09:14:02.388Z,11608.00
2019-05-23T09:15:02.334Z,11704.00
2019-05-23T09:16:02.322Z,11496.00
2019-05-23T09:17:02.405Z,11492.00
2019-05-23T09:18:02.412Z,11876.00
2019-05-23T09:19:02.299Z,11992.00
2019-05-23T09:20:02.351Z,12020.00
2019-05-23T09:21:02.383Z,11992.00
2019-05-23T09:22:02.288Z,12436.00
2019-05-23T09:23:03.643Z,12516.00
2019-05-23T09:24:02.507Z,12692.00
2019-05-23T09:25:02.271Z,12876.00
2019-05-23T09:26:02.427Z,12984.00
2019-05-23T09:27:02.285Z,12948.00
2019-05-23T09:28:02.468Z,12804.00
2019-05-23T09:29:02.204Z,12608.00
2019-05-23T09:30:02.179Z,12400.00
2019-05-23T09:31:02.371Z,12232.00
2019-05-23T09:32:02.215Z,12224.00
2019-05-23T09:33:02.165Z,12304.00
2019-05-23T09:34:02.215Z,12364.00
2019-05-23T09:35:19.185Z,12484.00
2019-05-23T09:36:03.121Z,12568.00
2019-05-23T09:37:02.146Z,12524.00
2019-05-23T09:38:02.272Z,12516.00
2019-05-23T09:39:02.356Z,12524.00
2019-05-23T09:40:02.089Z,12616.00
2019-05-23T09:41:02.109Z,12912.00
2019-05-23T09:42:02.059Z,13192.00
2019-05-23T09:43:02.072Z,13212.00
2019-05-23T09:44:02.096Z,13080.00
2019-05-23T09:45:02.093Z,13008.00
2019-05-23T09:46:02.052Z,13068.00
2019-05-23T09:47:02.078Z,13100.00
2019-05-23T09:48:02.037Z,13080.00
2019-05-23T09:49:01.970Z,13152.00
2019-05-23T09:50:02.014Z,13128.00
2019-05-23T09:51:02.085Z,13036.00
2019-05-23T09:52:01.974Z,13016.00
2019-05-23T09:53:01.933Z,12936.00
2019-05-23T09:54:01.954Z,12728.00
2019-05-23T09:55:03.234Z,12532.00
2019-05-23T09:56:02.211Z,12400.00
2019-05-23T09:57:01.895Z,12280.00
2019-05-23T09:58:02.600Z,12336.00
2019-05-23T09:59:01.855Z,12492.00
2019-05-23T10:00:01.970Z,12544.00
2019-05-23T10:01:02.133Z,12452.00
2019-05-23T10:02:01.975Z,11856.00
2019-05-23T10:03:01.815Z,11732.00
2019-05-23T10:04:01.865Z,11880.00
2019-05-23T10:05:01.808Z,11896.00
2019-05-23T10:06:03.066Z,11776.00
2019-05-23T10:07:01.882Z,11552.00
2019-05-23T10:08:01.842Z,11088.00
2019-05-23T10:09:01.829Z,11176.00
2019-05-23T10:10:02.071Z,11684.00
2019-05-23T10:11:01.918Z,11876.00
2019-05-23T10:12:01.710Z,11644.00
2019-05-23T10:13:01.951Z,12036.00
2019-05-23T10:14:01.878Z,11952.00
2019-05-23T10:15:01.745Z,11960.00
2019-05-23T10:16:01.743Z,11524.00
2019-05-23T10:17:02.021Z,11708.00
2019-05-23T10:18:01.668Z,11928.00
2019-05-23T10:19:01.665Z,11856.00
2019-05-23T10:20:01.764Z,11788.00
2019-05-23T10:21:01.633Z,11692.00
2019-05-23T10:22:02.045Z,10904.00
2019-05-23T10:23:01.618Z,10776.00
2019-05-23T10:24:01.616Z,10700.00
2019-05-23T10:25:01.569Z,10776.00
2019-05-23T10:26:01.639Z,10888.00
2019-05-23T10:27:01.750Z,11104.00
2019-05-23T10:28:01.648Z,11356.00
2019-05-23T10:29:01.775Z,11580.00
2019-05-23T10:30:02.167Z,11760.00
2019-05-23T10:31:01.573Z,11832.00
2019-05-23T10:32:01.508Z,11868.00
2019-05-23T10:33:01.533Z,11912.00
2019-05-23T10:34:01.480Z,12032.00
2019-05-23T10:35:01.605Z,12464.00
2019-05-23T10:36:01.520Z,13464.00
2019-05-23T10:37:01.446Z,13580.00
2019-05-23T10:38:01.569Z,13504.00
2019-05-23T10:39:01.558Z,13844.00
2019-05-23T10:40:01.462Z,13620.00
2019-05-23T10:41:01.507Z,13788.00
2019-05-23T10:42:01.445Z,13788.00
2019-05-23T10:43:01.395Z,13572.00
2019-05-23T10:44:01.596Z,14288.00
2019-05-23T10:45:01.716Z,13592.00
2019-05-23T10:46:01.451Z,14508.00
2019-05-23T10:47:01.403Z,13464.00
2019-05-23T10:48:01.327Z,14024.00
2019-05-23T10:49:01.323Z,14636.00
2019-05-23T10:50:07.610Z,14212.00
2019-05-23T10:51:02.365Z,14168.00
2019-05-23T10:52:01.388Z,14188.00
2019-05-23T10:53:01.277Z,14244.00
2019-05-23T10:54:01.319Z,14396.00
2019-05-23T10:55:01.239Z,14140.00
2019-05-23T10:56:01.271Z,14024.00
2019-05-23T10:57:01.241Z,14080.00
2019-05-23T10:58:01.288Z,14312.00
2019-05-23T10:59:01.250Z,14408.00
2019-05-23T11:00:01.204Z,14608.00
2019-05-23T11:01:01.179Z,14636.00
2019-05-23T11:02:01.252Z,15720.00
2019-05-23T11:03:01.303Z,15016.00
2019-05-23T11:04:01.165Z,14756.00
2019-05-23T11:05:12.041Z,14664.00
2019-05-23T11:07:12.123Z,15308.00
2019-05-23T11:08:12.062Z,15324.00
2019-05-23T11:09:12.058Z,15276.00
2019-05-23T11:10:12.051Z,15476.00
2019-05-23T11:11:14.400Z,15216.00
2019-05-23T11:12:12.050Z,14992.00
2019-05-23T11:13:12.023Z,14592.00
2019-05-23T11:14:12.067Z,15384.00
2019-05-23T11:15:12.802Z,15392.00
2019-05-23T11:16:12.025Z,15524.00
2019-05-23T11:17:12.041Z,15172.00
2019-05-23T11:18:11.976Z,15268.00
2019-05-23T11:19:11.930Z,14916.00
2019-05-23T11:20:11.980Z,14936.00
2019-05-23T11:21:11.903Z,15096.00
2019-05-23T11:22:12.143Z,16028.00
2019-05-23T11:23:11.970Z,16576.00
2019-05-23T11:24:11.913Z,16832.00
2019-05-23T11:25:11.874Z,15556.00
2019-05-23T11:26:11.908Z,15628.00
2019-05-23T11:27:11.931Z,15696.00
2019-05-23T11:28:11.882Z,15780.00
2019-05-23T11:29:11.837Z,16832.00
2019-05-23T11:30:11.846Z,15764.00
2019-05-23T11:31:11.809Z,15868.00
2019-05-23T11:32:11.830Z,17056.00
2019-05-23T11:33:11.804Z,16312.00
2019-05-23T11:34:11.927Z,16400.00
2019-05-23T11:35:11.759Z,17088.00
2019-05-23T11:36:11.752Z,17152.00
2019-05-23T11:37:11.783Z,17632.00
2019-05-23T11:38:11.948Z,17600.00
2019-05-23T11:39:12.902Z,17568.00
2019-05-23T11:40:11.722Z,18080.00
2019-05-23T11:41:11.970Z,18624.00
2019-05-23T11:42:12.168Z,17152.00
2019-05-23T11:43:12.300Z,17408.00
2019-05-23T11:44:12.095Z,18080.00
2019-05-23T11:45:12.023Z,18016.00
2019-05-23T11:46:12.036Z,17984.00
2019-05-23T11:47:11.667Z,18080.00
2019-05-23T11:48:11.723Z,18080.00
2019-05-23T11:49:11.991Z,18240.00
2019-05-23T11:50:11.747Z,18272.00
2019-05-23T11:51:12.065Z,18176.00
2019-05-23T11:52:11.591Z,18144.00
2019-05-23T11:53:11.660Z,18144.00
2019-05-23T11:54:11.588Z,18048.00
2019-05-23T11:55:11.618Z,17824.00
2019-05-23T11:56:11.572Z,17888.00
2019-05-23T11:57:11.547Z,17792.00
2019-05-23T11:58:11.631Z,17632.00
2019-05-23T11:59:11.539Z,17664.00
2019-05-23T12:00:11.476Z,17760.00
2019-05-23T12:01:19.916Z,17824.00
2019-05-23T12:02:12.510Z,18048.00
2019-05-23T12:03:11.460Z,18112.00
2019-05-23T12:04:11.454Z,18336.00
2019-05-23T12:05:11.505Z,18464.00
2019-05-23T12:06:11.492Z,18592.00
2019-05-23T12:07:11.526Z,18816.00
2019-05-23T12:08:11.502Z,18784.00
2019-05-23T12:09:11.626Z,18592.00
2019-05-23T12:10:11.401Z,18720.00
2019-05-23T12:11:11.378Z,18528.00
2019-05-23T12:12:11.409Z,18432.00
2019-05-23T12:13:11.351Z,18432.00
2019-05-23T12:14:11.398Z,18496.00
2019-05-23T12:15:11.354Z,18240.00
2019-05-23T12:16:11.353Z,18080.00
2019-05-23T12:17:11.289Z,17856.00
2019-05-23T12:18:11.279Z,17760.00
2019-05-23T12:19:11.369Z,17856.00
2019-05-23T12:20:11.565Z,18464.00
2019-05-23T12:21:11.266Z,18720.00
2019-05-23T12:22:11.268Z,19296.00
2019-05-23T12:23:11.388Z,19744.00